PWSweather.com
Personal Weather Stations
Station Observations
RIORANCHO
Corrales Heights, Rio Rancho, NM 87124

Corrales HeightsRio Rancho, NM 87124

Lat: 35.241928, Lon: -106.647095

Elevation: 5297

Station Type: Davis Vantage Pro 2 Plus

http://www.weatherriorancho.com

High Low Average
Temperature 42.8°F6.0°C 16.0°F-8.9°C 28.8°F-1.8°C
Dew Point 18.6°F-7.4°C 10.5°F-11.9°C 14.8°F-9.6°C
Winds 5.8 mph 9.3 kmh Calm Calm Calm SCalm S
Wind Gusts 9.2 mph14.8 kmh -- 1.0 mph1.6 kmh
Humidity 80% 36% 58%
Pressure 30.40 in1029.5 mb 30.27 in1025.1 mb -
Precipitation 0.00 in0.0 mm - -
Hour Temp Dew Point Humidity Winds Wind Gusts Pressure Precip Precip Rate Daily Precip Total
12:00 AM 21.7°F-5.7°C 14.1°F-9.9°C 72% Calm Calm -- 30.37 in1028.4 mb - 0.00 in0.0 mm 0.00 in0.0 mm
12:10 AM 21.4°F-5.9°C 13.7°F-10.2°C 72% Calm Calm -- 30.37 in1028.4 mb - 0.00 in0.0 mm 0.00 in0.0 mm
12:20 AM 21.1°F-6.1°C 13.5°F-10.3°C 72% Calm Calm -- 30.37 in1028.4 mb - 0.00 in0.0 mm 0.00 in0.0 mm
12:30 AM 20.9°F-6.2°C 13.6°F-10.2°C 73% Calm Calm -- 30.37 in1028.4 mb - 0.00 in0.0 mm 0.00 in0.0 mm
12:40 AM 20.8°F-6.2°C 13.5°F-10.3°C 73% Calm Calm -- 30.37 in1028.4 mb - 0.00 in0.0 mm 0.00 in0.0 mm
12:50 AM 20.6°F-6.3°C 13.3°F-10.4°C 73% Calm Calm -- 30.37 in1028.4 mb - 0.00 in0.0 mm 0.00 in0.0 mm
01:00 AM 20.5°F-6.4°C 13.5°F-10.3°C 74% Calm Calm 1.2 mph1.9 kmh 30.37 in1028.4 mb - 0.00 in0.0 mm 0.00 in0.0 mm
01:10 AM 20.4°F-6.4°C 13.4°F-10.3°C 74% Calm Calm 2.3 mph3.7 kmh 30.38 in1028.8 mb - 0.00 in0.0 mm 0.00 in0.0 mm
01:20 AM 20.4°F-6.4°C 13.4°F-10.3°C 74% Calm Calm -- 30.38 in1028.8 mb - 0.00 in0.0 mm 0.00 in0.0 mm
01:30 AM 20.3°F-6.5°C 13.3°F-10.4°C 74% Calm Calm -- 30.38 in1028.8 mb - 0.00 in0.0 mm 0.00 in0.0 mm
01:40 AM 20.3°F-6.5°C 13.6°F-10.2°C 75% Calm Calm -- 30.38 in1028.8 mb - 0.00 in0.0 mm 0.00 in0.0 mm
01:50 AM 20.3°F-6.5°C 13.3°F-10.4°C 74% Calm Calm -- 30.38 in1028.8 mb - 0.00 in0.0 mm 0.00 in0.0 mm
02:00 AM 20.2°F-6.6°C 13.2°F-10.4°C 74% Calm Calm -- 30.38 in1028.8 mb - 0.00 in0.0 mm 0.00 in0.0 mm
02:10 AM 20.0°F-6.7°C 13.1°F-10.5°C 74% Calm Calm -- 30.38 in1028.8 mb - 0.00 in0.0 mm 0.00 in0.0 mm
02:20 AM 19.8°F-6.8°C 12.8°F-10.7°C 74% Calm Calm -- 30.37 in1028.4 mb - 0.00 in0.0 mm 0.00 in0.0 mm
02:30 AM 19.5°F-6.9°C 12.6°F-10.8°C 74% Calm Calm -- 30.37 in1028.4 mb - 0.00 in0.0 mm 0.00 in0.0 mm
02:40 AM 19.3°F-7.1°C 12.7°F-10.7°C 75% Calm Calm -- 30.37 in1028.4 mb - 0.00 in0.0 mm 0.00 in0.0 mm
02:50 AM 19.2°F-7.1°C 12.6°F-10.8°C 75% Calm Calm -- 30.37 in1028.4 mb - 0.00 in0.0 mm 0.00 in0.0 mm
03:00 AM 19.1°F-7.2°C 12.5°F-10.8°C 75% Calm Calm -- 30.37 in1028.4 mb - 0.00 in0.0 mm 0.00 in0.0 mm
03:10 AM 18.9°F-7.3°C 12.6°F-10.8°C 76% Calm Calm -- 30.37 in1028.4 mb - 0.00 in0.0 mm 0.00 in0.0 mm
03:20 AM 18.8°F-7.3°C 12.5°F-10.8°C 76% Calm Calm -- 30.37 in1028.4 mb - 0.00 in0.0 mm 0.00 in0.0 mm
03:30 AM 18.6°F-7.4°C 12.3°F-10.9°C 76% Calm Calm -- 30.37 in1028.4 mb - 0.00 in0.0 mm 0.00 in0.0 mm
03:40 AM 18.4°F-7.6°C 11.8°F-11.2°C 75% Calm Calm -- 30.37 in1028.4 mb - 0.00 in0.0 mm 0.00 in0.0 mm
03:50 AM 18.3°F-7.6°C 11.7°F-11.3°C 75% Calm Calm -- 30.37 in1028.4 mb - 0.00 in0.0 mm 0.00 in0.0 mm
04:00 AM 18.1°F-7.7°C 11.8°F-11.2°C 76% Calm Calm -- 30.36 in1028.1 mb - 0.00 in0.0 mm 0.00 in0.0 mm
04:10 AM 18.0°F-7.8°C 11.7°F-11.3°C 76% Calm Calm -- 30.36 in1028.1 mb - 0.00 in0.0 mm 0.00 in0.0 mm
04:20 AM 17.8°F-7.9°C 11.6°F-11.3°C 76% Calm Calm -- 30.36 in1028.1 mb - 0.00 in0.0 mm 0.00 in0.0 mm
04:30 AM 17.6°F-8.0°C 11.0°F-11.7°C 75% Calm Calm -- 30.36 in1028.1 mb - 0.00 in0.0 mm 0.00 in0.0 mm
04:40 AM 17.2°F-8.2°C 11.0°F-11.7°C 76% Calm Calm -- 30.36 in1028.1 mb - 0.00 in0.0 mm 0.00 in0.0 mm
04:50 AM 17.0°F-8.3°C 10.7°F-11.8°C 76% Calm Calm -- 30.36 in1028.1 mb - 0.00 in0.0 mm 0.00 in0.0 mm
05:00 AM 16.8°F-8.4°C 10.8°F-11.8°C 77% Calm Calm 1.2 mph1.9 kmh 30.36 in1028.1 mb - 0.00 in0.0 mm 0.00 in0.0 mm
05:10 AM 16.7°F-8.5°C 11.0°F-11.7°C 78% Calm Calm 1.2 mph1.9 kmh 30.36 in1028.1 mb - 0.00 in0.0 mm 0.00 in0.0 mm
05:20 AM 16.6°F-8.6°C 10.9°F-11.7°C 78% Calm Calm -- 30.36 in1028.1 mb - 0.00 in0.0 mm 0.00 in0.0 mm
05:30 AM 16.6°F-8.6°C 10.9°F-11.7°C 78% Calm Calm -- 30.36 in1028.1 mb - 0.00 in0.0 mm 0.00 in0.0 mm
05:40 AM 16.4°F-8.7°C 10.7°F-11.8°C 78% Calm Calm -- 30.36 in1028.1 mb - 0.00 in0.0 mm 0.00 in0.0 mm
05:50 AM 16.2°F-8.8°C 10.5°F-11.9°C 78% Calm Calm -- 30.36 in1028.1 mb - 0.00 in0.0 mm 0.00 in0.0 mm
06:00 AM 16.1°F-8.8°C 10.7°F-11.8°C 79% Calm Calm -- 30.36 in1028.1 mb - 0.00 in0.0 mm 0.00 in0.0 mm
06:10 AM 16.0°F-8.9°C 10.6°F-11.9°C 79% Calm Calm -- 30.36 in1028.1 mb - 0.00 in0.0 mm 0.00 in0.0 mm
06:20 AM 16.1°F-8.8°C 10.7°F-11.8°C 79% Calm Calm 1.2 mph1.9 kmh 30.36 in1028.1 mb - 0.00 in0.0 mm 0.00 in0.0 mm
06:30 AM 16.1°F-8.8°C 10.7°F-11.8°C 79% Calm Calm -- 30.36 in1028.1 mb - 0.00 in0.0 mm 0.00 in0.0 mm
06:40 AM 16.0°F-8.9°C 10.6°F-11.9°C 79% Calm Calm -- 30.37 in1028.4 mb - 0.00 in0.0 mm 0.00 in0.0 mm
06:50 AM 16.1°F-8.8°C 10.7°F-11.8°C 79% 2.3 mph SW3.7 kmh SW 3.5 mph5.6 kmh 30.37 in1028.4 mb - 0.00 in0.0 mm 0.00 in0.0 mm
07:00 AM 16.2°F-8.8°C 10.8°F-11.8°C 79% 1.2 mph SW1.9 kmh SW 3.5 mph5.6 kmh 30.37 in1028.4 mb - 0.00 in0.0 mm 0.00 in0.0 mm
07:10 AM 16.4°F-8.7°C 11.0°F-11.7°C 79% Calm Calm -- 30.37 in1028.4 mb - 0.00 in0.0 mm 0.00 in0.0 mm
07:20 AM 16.4°F-8.7°C 11.0°F-11.7°C 79% Calm Calm -- 30.37 in1028.4 mb - 0.00 in0.0 mm 0.00 in0.0 mm
07:30 AM 16.3°F-8.7°C 11.0°F-11.7°C 79% Calm Calm -- 30.37 in1028.4 mb - 0.00 in0.0 mm 0.00 in0.0 mm
07:40 AM 16.3°F-8.7°C 10.9°F-11.7°C 79% Calm Calm -- 30.37 in1028.4 mb - 0.00 in0.0 mm 0.00 in0.0 mm
07:50 AM 16.8°F-8.4°C 11.7°F-11.3°C 80% Calm Calm -- 30.37 in1028.4 mb - 0.00 in0.0 mm 0.00 in0.0 mm
08:00 AM 17.7°F-7.9°C 12.3°F-10.9°C 79% Calm Calm -- 30.37 in1028.4 mb - 0.00 in0.0 mm 0.00 in0.0 mm
08:10 AM 18.8°F-7.3°C 13.1°F-10.5°C 78% Calm Calm -- 30.38 in1028.8 mb - 0.00 in0.0 mm 0.00 in0.0 mm
08:20 AM 19.8°F-6.8°C 13.7°F-10.2°C 77% Calm Calm -- 30.38 in1028.8 mb - 0.00 in0.0 mm 0.00 in0.0 mm
08:30 AM 21.0°F-6.1°C 14.3°F-9.8°C 75% Calm Calm -- 30.38 in1028.8 mb - 0.00 in0.0 mm 0.00 in0.0 mm
08:40 AM 22.5°F-5.3°C 15.5°F-9.2°C 74% Calm Calm -- 30.38 in1028.8 mb - 0.00 in0.0 mm 0.00 in0.0 mm
08:50 AM 23.6°F-4.7°C 15.6°F-9.1°C 71% Calm Calm -- 30.39 in1029.1 mb - 0.00 in0.0 mm 0.00 in0.0 mm
09:00 AM 24.5°F-4.2°C 16.1°F-8.8°C 70% Calm Calm -- 30.39 in1029.1 mb - 0.00 in0.0 mm 0.00 in0.0 mm
09:10 AM 25.5°F-3.6°C 16.4°F-8.7°C 68% Calm Calm -- 30.39 in1029.1 mb - 0.00 in0.0 mm 0.00 in0.0 mm
09:20 AM 26.2°F-3.2°C 16.0°F-8.9°C 65% Calm Calm -- 30.39 in1029.1 mb - 0.00 in0.0 mm 0.00 in0.0 mm
09:30 AM 27.7°F-2.4°C 16.8°F-8.4°C 63% Calm Calm -- 30.39 in1029.1 mb - 0.00 in0.0 mm 0.00 in0.0 mm
09:40 AM 28.7°F-1.8°C 16.6°F-8.6°C 60% Calm Calm -- 30.39 in1029.1 mb - 0.00 in0.0 mm 0.00 in0.0 mm
09:50 AM 30.1°F-1.1°C 17.1°F-8.3°C 58% Calm Calm -- 30.39 in1029.1 mb - 0.00 in0.0 mm 0.00 in0.0 mm
10:00 AM 30.3°F-0.9°C 16.8°F-8.4°C 57% Calm Calm -- 30.40 in1029.5 mb - 0.00 in0.0 mm 0.00 in0.0 mm
10:10 AM 31.5°F-0.3°C 17.6°F-8.0°C 56% Calm Calm -- 30.39 in1029.1 mb - 0.00 in0.0 mm 0.00 in0.0 mm
10:20 AM 32.0°F0.0°C 17.2°F-8.2°C 54% Calm Calm -- 30.39 in1029.1 mb - 0.00 in0.0 mm 0.00 in0.0 mm
10:30 AM 31.6°F-0.2°C 17.3°F-8.2°C 55% Calm Calm -- 30.39 in1029.1 mb - 0.00 in0.0 mm 0.00 in0.0 mm
10:40 AM 32.1°F0.1°C 18.1°F-7.7°C 56% Calm Calm -- 30.39 in1029.1 mb - 0.00 in0.0 mm 0.00 in0.0 mm
10:50 AM 33.0°F0.6°C 18.1°F-7.7°C 54% Calm Calm 1.2 mph1.9 kmh 30.38 in1028.8 mb - 0.00 in0.0 mm 0.00 in0.0 mm
11:00 AM 33.3°F0.7°C 18.4°F-7.6°C 54% Calm Calm 3.5 mph5.6 kmh 30.38 in1028.8 mb - 0.00 in0.0 mm 0.00 in0.0 mm
11:10 AM 33.5°F0.8°C 18.6°F-7.4°C 54% Calm Calm 1.2 mph1.9 kmh 30.38 in1028.8 mb - 0.00 in0.0 mm 0.00 in0.0 mm
11:20 AM 33.9°F1.1°C 18.5°F-7.5°C 53% 1.2 mph SSW1.9 kmh SSW 4.6 mph7.4 kmh 30.37 in1028.4 mb - 0.00 in0.0 mm 0.00 in0.0 mm
11:30 AM 33.7°F0.9°C 17.9°F-7.8°C 52% 2.3 mph S3.7 kmh S 4.6 mph7.4 kmh 30.36 in1028.1 mb - 0.00 in0.0 mm 0.00 in0.0 mm
11:40 AM 35.3°F1.8°C 18.5°F-7.5°C 50% 2.3 mph S3.7 kmh S 3.5 mph5.6 kmh 30.35 in1027.8 mb - 0.00 in0.0 mm 0.00 in0.0 mm
11:50 AM 36.1°F2.3°C 17.8°F-7.9°C 47% 3.5 mph S5.6 kmh S 5.8 mph9.3 kmh 30.35 in1027.8 mb - 0.00 in0.0 mm 0.00 in0.0 mm
12:00 PM 36.2°F2.3°C 16.9°F-8.4°C 45% 2.3 mph SSE3.7 kmh SSE 3.5 mph5.6 kmh 30.34 in1027.4 mb - 0.00 in0.0 mm 0.00 in0.0 mm
12:10 PM 37.3°F2.9°C 16.8°F-8.4°C 43% 5.8 mph SE9.3 kmh SE 8.1 mph13.0 kmh 30.33 in1027.1 mb - 0.00 in0.0 mm 0.00 in0.0 mm
12:20 PM 38.3°F3.5°C 17.2°F-8.2°C 42% 2.3 mph S3.7 kmh S 5.8 mph9.3 kmh 30.32 in1026.8 mb - 0.00 in0.0 mm 0.00 in0.0 mm
12:30 PM 38.6°F3.7°C 16.9°F-8.4°C 41% 2.3 mph SE3.7 kmh SE 3.5 mph5.6 kmh 30.32 in1026.8 mb - 0.00 in0.0 mm 0.00 in0.0 mm
12:40 PM 38.8°F3.8°C 17.1°F-8.3°C 41% 2.3 mph SSE3.7 kmh SSE 3.5 mph5.6 kmh 30.32 in1026.8 mb - 0.00 in0.0 mm 0.00 in0.0 mm
12:50 PM 38.8°F3.8°C 17.1°F-8.3°C 41% Calm Calm 3.5 mph5.6 kmh 30.31 in1026.4 mb - 0.00 in0.0 mm 0.00 in0.0 mm
01:00 PM 39.8°F4.3°C 16.8°F-8.4°C 39% 1.2 mph SSE1.9 kmh SSE 3.5 mph5.6 kmh 30.31 in1026.4 mb - 0.00 in0.0 mm 0.00 in0.0 mm
01:10 PM 40.2°F4.6°C 17.2°F-8.2°C 39% 3.5 mph SE5.6 kmh SE 9.2 mph14.8 kmh 30.30 in1026.1 mb - 0.00 in0.0 mm 0.00 in0.0 mm
01:20 PM 40.5°F4.7°C 16.8°F-8.4°C 38% 1.2 mph SSE1.9 kmh SSE 2.3 mph3.7 kmh 30.30 in1026.1 mb - 0.00 in0.0 mm 0.00 in0.0 mm
01:30 PM 40.5°F4.7°C 16.9°F-8.4°C 38% Calm Calm 1.2 mph1.9 kmh 30.29 in1025.7 mb - 0.00 in0.0 mm 0.00 in0.0 mm
01:40 PM 41.9°F5.5°C 17.5°F-8.1°C 37% 1.2 mph SE1.9 kmh SE 4.6 mph7.4 kmh 30.29 in1025.7 mb - 0.00 in0.0 mm 0.00 in0.0 mm
01:50 PM 41.9°F5.5°C 17.5°F-8.1°C 37% 1.2 mph SE1.9 kmh SE 5.8 mph9.3 kmh 30.29 in1025.7 mb - 0.00 in0.0 mm 0.00 in0.0 mm
02:00 PM 41.4°F5.2°C 17.0°F-8.3°C 37% 1.2 mph S1.9 kmh S 1.2 mph1.9 kmh 30.29 in1025.7 mb - 0.00 in0.0 mm 0.00 in0.0 mm
02:10 PM 41.3°F5.2°C 17.6°F-8.0°C 38% 1.2 mph SSE1.9 kmh SSE 3.5 mph5.6 kmh 30.29 in1025.7 mb - 0.00 in0.0 mm 0.00 in0.0 mm
02:20 PM 41.7°F5.4°C 17.3°F-8.2°C 37% 1.2 mph SSE1.9 kmh SSE 2.3 mph3.7 kmh 30.29 in1025.7 mb - 0.00 in0.0 mm 0.00 in0.0 mm
02:30 PM 42.2°F5.7°C 17.8°F-7.9°C 37% 2.3 mph S3.7 kmh S 3.5 mph5.6 kmh 30.28 in1025.4 mb - 0.00 in0.0 mm 0.00 in0.0 mm
02:40 PM 42.2°F5.7°C 17.1°F-8.3°C 36% Calm Calm 3.5 mph5.6 kmh 30.28 in1025.4 mb - 0.00 in0.0 mm 0.00 in0.0 mm
02:50 PM 42.1°F5.6°C 17.7°F-7.9°C 37% Calm Calm 3.5 mph5.6 kmh 30.28 in1025.4 mb - 0.00 in0.0 mm 0.00 in0.0 mm
03:00 PM 42.2°F5.7°C 17.7°F-7.9°C 37% Calm Calm 1.2 mph1.9 kmh 30.28 in1025.4 mb - 0.00 in0.0 mm 0.00 in0.0 mm
03:10 PM 42.8°F6.0°C 17.7°F-7.9°C 36% 1.2 mph SE1.9 kmh SE 3.5 mph5.6 kmh 30.28 in1025.4 mb - 0.00 in0.0 mm 0.00 in0.0 mm
03:20 PM 42.3°F5.7°C 17.2°F-8.2°C 36% 1.2 mph SSE1.9 kmh SSE 2.3 mph3.7 kmh 30.28 in1025.4 mb - 0.00 in0.0 mm 0.00 in0.0 mm
03:30 PM 42.6°F5.9°C 17.5°F-8.1°C 36% Calm Calm 1.2 mph1.9 kmh 30.28 in1025.4 mb - 0.00 in0.0 mm 0.00 in0.0 mm
03:40 PM 42.5°F5.8°C 17.4°F-8.1°C 36% 1.2 mph SSE1.9 kmh SSE 2.3 mph3.7 kmh 30.28 in1025.4 mb - 0.00 in0.0 mm 0.00 in0.0 mm
03:50 PM 42.8°F6.0°C 17.7°F-7.9°C 36% 1.2 mph SSE1.9 kmh SSE 2.3 mph3.7 kmh 30.28 in1025.4 mb - 0.00 in0.0 mm 0.00 in0.0 mm
04:00 PM 42.4°F5.8°C 17.3°F-8.2°C 36% 2.3 mph SE3.7 kmh SE 3.5 mph5.6 kmh 30.28 in1025.4 mb - 0.00 in0.0 mm 0.00 in0.0 mm
04:10 PM 42.4°F5.8°C 17.3°F-8.2°C 36% Calm Calm 1.2 mph1.9 kmh 30.28 in1025.4 mb - 0.00 in0.0 mm 0.00 in0.0 mm
04:20 PM 42.1°F5.6°C 17.7°F-7.9°C 37% Calm Calm 2.3 mph3.7 kmh 30.28 in1025.4 mb - 0.00 in0.0 mm 0.00 in0.0 mm
04:30 PM 41.9°F5.5°C 17.5°F-8.1°C 37% 1.2 mph SSE1.9 kmh SSE 3.5 mph5.6 kmh 30.28 in1025.4 mb - 0.00 in0.0 mm 0.00 in0.0 mm
04:40 PM 41.7°F5.4°C 17.3°F-8.2°C 37% 1.2 mph SSE1.9 kmh SSE 2.3 mph3.7 kmh 30.27 in1025.1 mb - 0.00 in0.0 mm 0.00 in0.0 mm
04:50 PM 41.5°F5.3°C 17.1°F-8.3°C 37% 1.2 mph SSE1.9 kmh SSE 2.3 mph3.7 kmh 30.28 in1025.4 mb - 0.00 in0.0 mm 0.00 in0.0 mm
05:00 PM 41.2°F5.1°C 17.5°F-8.1°C 38% Calm Calm 2.3 mph3.7 kmh 30.28 in1025.4 mb - 0.00 in0.0 mm 0.00 in0.0 mm
05:10 PM 40.9°F4.9°C 17.2°F-8.2°C 38% Calm Calm -- 30.28 in1025.4 mb - 0.00 in0.0 mm 0.00 in0.0 mm
05:20 PM 40.6°F4.8°C 17.0°F-8.3°C 38% Calm Calm 1.2 mph1.9 kmh 30.27 in1025.1 mb - 0.00 in0.0 mm 0.00 in0.0 mm
05:30 PM 40.2°F4.6°C 17.2°F-8.2°C 39% Calm Calm 1.2 mph1.9 kmh 30.27 in1025.1 mb - 0.00 in0.0 mm 0.00 in0.0 mm
05:40 PM 39.7°F4.3°C 16.7°F-8.5°C 39% Calm Calm -- 30.27 in1025.1 mb - 0.00 in0.0 mm 0.00 in0.0 mm
05:50 PM 39.3°F4.1°C 17.0°F-8.3°C 40% 1.2 mph SSE1.9 kmh SSE 3.5 mph5.6 kmh 30.27 in1025.1 mb - 0.00 in0.0 mm 0.00 in0.0 mm
06:00 PM 38.9°F3.8°C 16.6°F-8.6°C 40% Calm Calm 2.3 mph3.7 kmh 30.28 in1025.4 mb - 0.00 in0.0 mm 0.00 in0.0 mm
06:10 PM 38.4°F3.6°C 16.7°F-8.5°C 41% Calm Calm 2.3 mph3.7 kmh 30.28 in1025.4 mb - 0.00 in0.0 mm 0.00 in0.0 mm
06:20 PM 38.0°F3.3°C 16.4°F-8.7°C 41% Calm Calm 3.5 mph5.6 kmh 30.28 in1025.4 mb - 0.00 in0.0 mm 0.00 in0.0 mm
06:30 PM 37.6°F3.1°C 16.6°F-8.6°C 42% Calm Calm 1.2 mph1.9 kmh 30.28 in1025.4 mb - 0.00 in0.0 mm 0.00 in0.0 mm
06:40 PM 37.2°F2.9°C 16.2°F-8.8°C 42% Calm Calm 2.3 mph3.7 kmh 30.29 in1025.7 mb - 0.00 in0.0 mm 0.00 in0.0 mm
06:50 PM 36.9°F2.7°C 16.5°F-8.6°C 43% Calm Calm 1.2 mph1.9 kmh 30.29 in1025.7 mb - 0.00 in0.0 mm 0.00 in0.0 mm
07:00 PM 36.5°F2.5°C 16.1°F-8.8°C 43% Calm Calm -- 30.29 in1025.7 mb - 0.00 in0.0 mm 0.00 in0.0 mm
07:10 PM 35.7°F2.1°C 15.9°F-8.9°C 44% Calm Calm -- 30.30 in1026.1 mb - 0.00 in0.0 mm 0.00 in0.0 mm
07:20 PM 35.3°F1.8°C 15.5°F-9.2°C 44% Calm Calm -- 30.30 in1026.1 mb - 0.00 in0.0 mm 0.00 in0.0 mm
07:30 PM 35.1°F1.7°C 15.3°F-9.3°C 44% Calm Calm -- 30.30 in1026.1 mb - 0.00 in0.0 mm 0.00 in0.0 mm
07:40 PM 34.6°F1.4°C 15.4°F-9.2°C 45% Calm Calm -- 30.30 in1026.1 mb - 0.00 in0.0 mm 0.00 in0.0 mm
07:50 PM 33.9°F1.1°C 14.8°F-9.6°C 45% Calm Calm -- 30.31 in1026.4 mb - 0.00 in0.0 mm 0.00 in0.0 mm
08:00 PM 33.0°F0.6°C 14.9°F-9.5°C 47% Calm Calm -- 30.31 in1026.4 mb - 0.00 in0.0 mm 0.00 in0.0 mm
08:10 PM 32.1°F0.1°C 14.6°F-9.7°C 48% Calm Calm -- 30.31 in1026.4 mb - 0.00 in0.0 mm 0.00 in0.0 mm
08:20 PM 31.6°F-0.2°C 14.1°F-9.9°C 48% Calm Calm -- 30.31 in1026.4 mb - 0.00 in0.0 mm 0.00 in0.0 mm
08:30 PM 31.0°F-0.6°C 13.6°F-10.2°C 48% Calm Calm -- 30.31 in1026.4 mb - 0.00 in0.0 mm 0.00 in0.0 mm
08:40 PM 30.2°F-1.0°C 13.8°F-10.1°C 50% Calm Calm -- 30.31 in1026.4 mb - 0.00 in0.0 mm 0.00 in0.0 mm
08:50 PM 29.4°F-1.4°C 13.5°F-10.3°C 51% Calm Calm -- 30.31 in1026.4 mb - 0.00 in0.0 mm 0.00 in0.0 mm
09:00 PM 29.1°F-1.6°C 13.6°F-10.2°C 52% Calm Calm -- 30.31 in1026.4 mb - 0.00 in0.0 mm 0.00 in0.0 mm
09:10 PM 28.8°F-1.8°C 13.8°F-10.1°C 53% Calm Calm -- 30.31 in1026.4 mb - 0.00 in0.0 mm 0.00 in0.0 mm
09:20 PM 28.5°F-1.9°C 13.9°F-10.1°C 54% Calm Calm -- 30.32 in1026.8 mb - 0.00 in0.0 mm 0.00 in0.0 mm
09:30 PM 28.2°F-2.1°C 14.1°F-9.9°C 55% Calm Calm -- 30.31 in1026.4 mb - 0.00 in0.0 mm 0.00 in0.0 mm
09:40 PM 28.0°F-2.2°C 14.3°F-9.8°C 56% Calm Calm -- 30.32 in1026.8 mb - 0.00 in0.0 mm 0.00 in0.0 mm
09:50 PM 27.8°F-2.3°C 14.5°F-9.7°C 57% Calm Calm -- 30.32 in1026.8 mb - 0.00 in0.0 mm 0.00 in0.0 mm
10:00 PM 27.6°F-2.4°C 14.3°F-9.8°C 57% Calm Calm -- 30.32 in1026.8 mb - 0.00 in0.0 mm 0.00 in0.0 mm
10:10 PM 27.3°F-2.6°C 14.1°F-9.9°C 57% Calm Calm -- 30.32 in1026.8 mb - 0.00 in0.0 mm 0.00 in0.0 mm
10:20 PM 27.1°F-2.7°C 14.3°F-9.8°C 58% Calm Calm -- 30.32 in1026.8 mb - 0.00 in0.0 mm 0.00 in0.0 mm
10:30 PM 26.8°F-2.9°C 14.4°F-9.8°C 59% Calm Calm -- 30.32 in1026.8 mb - 0.00 in0.0 mm 0.00 in0.0 mm
10:40 PM 26.6°F-3.0°C 14.6°F-9.7°C 60% Calm Calm -- 30.32 in1026.8 mb - 0.00 in0.0 mm 0.00 in0.0 mm
10:50 PM 26.5°F-3.1°C 14.5°F-9.7°C 60% Calm Calm -- 30.32 in1026.8 mb - 0.00 in0.0 mm 0.00 in0.0 mm
11:00 PM 26.3°F-3.2°C 14.3°F-9.8°C 60% Calm Calm -- 30.32 in1026.8 mb - 0.00 in0.0 mm 0.00 in0.0 mm
11:10 PM 26.2°F-3.2°C 14.6°F-9.7°C 61% Calm Calm -- 30.32 in1026.8 mb - 0.00 in0.0 mm 0.00 in0.0 mm
11:20 PM 26.0°F-3.3°C 14.4°F-9.8°C 61% Calm Calm -- 30.32 in1026.8 mb - 0.00 in0.0 mm 0.00 in0.0 mm
11:30 PM 25.7°F-3.5°C 14.1°F-9.9°C 61% Calm Calm -- 30.32 in1026.8 mb - 0.00 in0.0 mm 0.00 in0.0 mm
11:40 PM 25.6°F-3.6°C 14.4°F-9.8°C 62% Calm Calm -- 30.32 in1026.8 mb - 0.00 in0.0 mm 0.00 in0.0 mm
11:50 PM 25.4°F-3.7°C 13.8°F-10.1°C 61% Calm Calm -- 30.31 in1026.4 mb - 0.00 in0.0 mm 0.00 in0.0 mm